Time;durP1;ratioP1;P1;durP2;ratioP2;P2;SDS_P1;SDS_P2;PMS_P1;PMS_P2;Temp;Humidity;BMP_temperature;BMP_pressure;BME280_temperature;BME280_humidity;BME280_pressure;Samples;Min_cycle;Max_cycle;Signal;HPM_P1;HPM_P2
2023/06/10 00:01:14;;;;;;;9.53;6.70;;;;;;;17.59;63.93;100862.00;4991082;28;20578;-71
2023/06/10 00:03:43;;;;;;;12.83;6.23;;;;;;;17.57;65.32;100861.56;4989923;28;20217;-71
2023/06/10 00:06:10;;;;;;;12.33;6.43;;;;;;;17.55;65.48;100858.50;4990823;28;20236;-71
2023/06/10 00:08:39;;;;;;;8.40;6.37;;;;;;;17.55;65.85;100858.50;4992652;28;20251;-71
2023/06/10 00:11:06;;;;;;;10.03;7.17;;;;;;;17.51;65.04;100855.81;4987680;28;20204;-71
2023/06/10 00:13:32;;;;;;;10.13;6.90;;;;;;;17.48;64.56;100858.41;4990231;28;20228;-71
2023/06/10 00:15:58;;;;;;;9.60;6.70;;;;;;;17.45;65.60;100865.28;4987081;28;20240;-71
2023/06/10 00:18:26;;;;;;;9.27;6.30;;;;;;;17.42;65.02;100852.66;4987938;28;20316;-71
2023/06/10 00:20:54;;;;;;;11.80;6.40;;;;;;;17.38;66.33;100859.84;4987126;28;20232;-71
2023/06/10 00:23:21;;;;;;;9.80;6.97;;;;;;;17.37;66.40;100854.81;4989108;28;20255;-71
2023/06/10 00:25:48;;;;;;;9.17;6.50;;;;;;;17.33;66.07;100859.38;4989930;28;20258;-71
2023/06/10 00:28:14;;;;;;;11.10;6.90;;;;;;;17.30;67.20;100862.75;4991858;28;20329;-71
2023/06/10 00:30:40;;;;;;;8.50;6.67;;;;;;;17.27;66.50;100852.78;4987450;28;20236;-71
2023/06/10 00:33:10;;;;;;;9.93;6.93;;;;;;;17.24;66.98;100862.28;4989439;28;20240;-71
2023/06/10 00:35:37;;;;;;;11.83;7.40;;;;;;;17.19;67.06;100851.94;4991744;28;20211;-71
2023/06/10 00:38:06;;;;;;;11.53;7.03;;;;;;;17.15;67.11;100845.81;4994397;28;20221;-71
2023/06/10 00:40:34;;;;;;;11.00;6.80;;;;;;;17.12;67.57;100851.84;5001047;28;20212;-71
2023/06/10 00:43:00;;;;;;;11.03;6.90;;;;;;;17.08;67.40;100843.03;4994550;28;20219;-71
2023/06/10 00:45:27;;;;;;;11.20;7.43;;;;;;;17.05;66.60;100851.78;4994255;28;20201;-71
2023/06/10 00:47:53;;;;;;;9.67;7.10;;;;;;;17.02;68.56;100846.41;4992168;28;20210;-71
2023/06/10 00:50:19;;;;;;;10.10;6.97;;;;;;;16.99;68.56;100857.78;4999944;28;20201;-71
2023/06/10 00:52:48;;;;;;;8.43;6.90;;;;;;;16.96;68.75;100856.59;4994970;28;20237;-71
2023/06/10 00:55:17;;;;;;;10.23;6.50;;;;;;;16.92;67.13;100852.38;4994013;28;20211;-71
2023/06/10 00:57:46;;;;;;;9.90;6.93;;;;;;;16.90;69.08;100862.59;4989231;28;20220;-71
2023/06/10 01:00:13;;;;;;;10.80;6.97;;;;;;;16.86;69.18;100853.81;4989454;28;20693;-71
2023/06/10 01:02:39;;;;;;;8.17;6.83;;;;;;;16.83;68.20;100862.53;4990115;28;20643;-71
2023/06/10 01:05:06;;;;;;;11.27;7.57;;;;;;;16.79;68.91;100862.47;4993725;28;20658;-71
2023/06/10 01:07:41;;;;;;;13.03;7.47;;;;;;;16.77;69.84;100867.38;4991099;28;20214;-71
2023/06/10 01:10:12;;;;;;;13.47;7.40;;;;;;;16.73;68.69;100855.91;4994169;28;20754;-71
2023/06/10 01:12:48;;;;;;;11.23;7.10;;;;;;;16.71;69.62;100868.06;4988831;28;20229;-71
2023/06/10 01:15:15;;;;;;;9.63;7.00;;;;;;;16.68;70.21;100866.88;4995797;28;20218;-71
2023/06/10 01:17:55;;;;;;;11.47;7.57;;;;;;;16.66;69.24;100871.78;4991559;28;20237;-71
2023/06/10 01:20:21;;;;;;;8.77;7.07;;;;;;;16.63;69.14;100867.19;4991381;28;20567;-71
2023/06/10 01:22:49;;;;;;;9.57;7.17;;;;;;;16.61;68.51;100869.44;4991636;28;20317;-71
2023/06/10 01:25:15;;;;;;;10.70;6.57;;;;;;;16.59;69.68;100860.25;4993322;28;20717;-71
2023/06/10 01:27:45;;;;;;;8.77;7.13;;;;;;;16.55;69.67;100860.19;4999424;28;20736;-71
2023/06/10 01:30:16;;;;;;;9.87;6.90;;;;;;;16.53;70.44;100865.13;4998202;28;20206;-71
2023/06/10 01:32:46;;;;;;;8.60;6.50;;;;;;;16.49;70.49;100864.31;4991437;28;20227;-71
2023/06/10 01:35:16;;;;;;;7.73;6.80;;;;;;;16.47;70.04;100863.13;4997144;28;20208;-71
2023/06/10 01:37:46;;;;;;;12.90;7.57;;;;;;;16.43;69.97;100865.72;4990902;28;20693;-71
2023/06/10 01:40:17;;;;;;;15.27;8.70;;;;;;;16.40;69.92;100863.78;4990721;28;20205;-71
2023/06/10 01:42:43;;;;;;;11.77;7.97;;;;;;;16.38;69.53;100874.00;4985859;28;20217;-71
2023/06/10 01:45:11;;;;;;;11.37;7.90;;;;;;;16.35;70.86;100871.28;4989180;28;20729;-71
2023/06/10 01:47:37;;;;;;;10.10;7.47;;;;;;;16.32;71.08;100874.66;4991675;28;20730;-71
2023/06/10 01:50:04;;;;;;;10.90;7.30;;;;;;;16.29;70.26;100894.00;4996168;28;20209;-71
2023/06/10 01:52:30;;;;;;;12.43;7.60;;;;;;;16.26;70.59;100897.41;4990065;28;20235;-71
2023/06/10 01:54:57;;;;;;;9.03;7.50;;;;;;;16.22;70.27;100902.66;4992545;28;20580;-71
2023/06/10 01:57:24;;;;;;;11.80;8.30;;;;;;;16.19;71.31;100906.03;4991077;28;20697;-71
2023/06/10 01:59:51;;;;;;;10.03;7.80;;;;;;;16.14;70.98;100905.56;4996955;28;20587;-71
2023/06/10 02:02:17;;;;;;;10.70;8.00;;;;;;;16.10;71.11;100908.16;4990554;28;20288;-71
2023/06/10 02:04:44;;;;;;;10.33;8.37;;;;;;;16.08;71.42;100912.28;4991052;28;20210;-71
2023/06/10 02:07:12;;;;;;;8.77;7.40;;;;;;;16.03;71.60;100905.38;4993596;28;20280;-71
2023/06/10 02:09:38;;;;;;;8.63;6.87;;;;;;;16.01;71.56;100912.16;4984722;28;20685;-71
2023/06/10 02:12:06;;;;;;;9.20;7.63;;;;;;;15.96;71.89;100918.56;4994640;28;20214;-71
2023/06/10 02:14:34;;;;;;;8.67;7.57;;;;;;;15.92;71.88;100919.59;4994945;28;20220;-71
2023/06/10 02:17:00;;;;;;;9.17;7.20;;;;;;;15.86;72.41;100910.38;4996288;28;20197;-71
2023/06/10 02:19:27;;;;;;;8.60;7.30;;;;;;;15.81;72.21;100918.63;5003159;28;20216;-71
2023/06/10 02:21:54;;;;;;;10.10;7.37;;;;;;;15.77;72.73;100921.25;4997136;28;20545;-71
2023/06/10 02:24:20;;;;;;;10.07;7.37;;;;;;;15.71;72.63;100913.88;5001686;28;20251;-71
2023/06/10 02:26:47;;;;;;;12.40;8.83;;;;;;;15.67;72.60;100918.34;4995484;28;20229;-71
2023/06/10 02:29:14;;;;;;;9.13;7.80;;;;;;;15.62;72.65;100913.34;4991132;28;20224;-71
2023/06/10 02:31:42;;;;;;;8.93;7.70;;;;;;;15.56;72.84;100914.72;4998506;28;20363;-71
2023/06/10 02:34:09;;;;;;;10.33;8.33;;;;;;;15.54;72.38;100928.41;4995608;28;20508;-71
2023/06/10 02:36:35;;;;;;;11.53;8.37;;;;;;;15.51;73.16;100925.63;4995583;28;20247;-71
2023/06/10 02:39:04;;;;;;;9.10;8.20;;;;;;;15.45;73.13;100924.38;4995516;28;20592;-71
2023/06/10 02:41:31;;;;;;;9.37;7.70;;;;;;;15.40;73.90;100922.78;4983406;28;20198;-71
2023/06/10 02:43:58;;;;;;;12.60;8.23;;;;;;;15.37;73.97;100933.34;4991217;28;20235;-71
2023/06/10 02:46:25;;;;;;;10.80;8.40;;;;;;;15.32;73.48;100923.69;4998156;28;20483;-71
2023/06/10 02:48:55;;;;;;;10.97;8.00;;;;;;;15.28;73.52;100927.41;4988296;28;20206;-71
2023/06/10 02:51:24;;;;;;;10.50;8.40;;;;;;;15.24;73.52;100924.69;4988297;28;20236;-71
2023/06/10 02:53:57;;;;;;;10.43;8.37;;;;;;;15.21;74.00;100919.28;4982572;28;20232;-71
2023/06/10 02:56:23;;;;;;;8.83;7.93;;;;;;;15.18;74.31;100925.28;4990378;28;20752;-71
2023/06/10 02:58:51;;;;;;;10.63;8.27;;;;;;;15.14;73.95;100932.41;4994622;28;20275;-71
2023/06/10 03:01:19;;;;;;;8.97;8.07;;;;;;;15.10;74.60;100929.69;4995166;28;20271;-71
2023/06/10 03:03:56;;;;;;;8.70;7.80;;;;;;;15.06;74.62;100928.81;4989729;28;20221;-71
2023/06/10 03:06:24;;;;;;;10.43;8.37;;;;;;;15.05;75.07;100935.28;4986210;28;20214;-71
2023/06/10 03:08:50;;;;;;;10.67;8.30;;;;;;;15.01;74.82;100931.75;4970238;28;20202;-71
2023/06/10 03:11:20;;;;;;;14.83;9.27;;;;;;;14.98;75.18;100943.09;4986419;28;20217;-71
2023/06/10 03:13:47;;;;;;;14.67;8.33;;;;;;;14.95;74.99;100937.72;4989300;28;20221;-71
2023/06/10 03:16:18;;;;;;;11.17;8.47;;;;;;;14.93;74.52;100932.72;4989661;28;20200;-71
2023/06/10 03:18:44;;;;;;;11.53;8.70;;;;;;;14.91;75.39;100934.94;4993118;28;20377;-71
2023/06/10 03:21:12;;;;;;;11.63;8.83;;;;;;;14.91;74.96;100939.50;5008463;28;20313;-71
2023/06/10 03:23:39;;;;;;;10.23;8.20;;;;;;;14.90;74.76;100930.75;4989374;28;20225;-71
2023/06/10 03:26:06;;;;;;;13.33;9.30;;;;;;;14.91;75.35;100934.94;4989427;28;20388;-71
2023/06/10 03:28:34;;;;;;;14.03;9.47;;;;;;;14.94;75.38;100938.81;4989218;28;20196;-71
2023/06/10 03:31:00;;;;;;;10.83;9.40;;;;;;;14.94;75.37;100941.47;4990599;28;20189;-71
2023/06/10 03:33:29;;;;;;;15.33;10.83;;;;;;;14.96;75.67;100942.66;4989165;28;20279;-71
2023/06/10 03:35:56;;;;;;;11.83;10.33;;;;;;;14.98;75.96;100945.75;4988808;28;20209;-71
2023/06/10 03:38:25;;;;;;;12.60;8.97;;;;;;;15.01;76.30;100939.72;4988367;28;20680;-71
2023/06/10 03:40:53;;;;;;;11.73;9.77;;;;;;;15.03;76.10;100937.50;4998167;28;20202;-71
2023/06/10 03:43:20;;;;;;;11.70;10.07;;;;;;;15.07;76.12;100940.25;4989113;28;20710;-71
2023/06/10 03:45:49;;;;;;;14.83;10.17;;;;;;;15.11;76.02;100949.09;4988570;28;20209;-71
2023/06/10 03:48:16;;;;;;;11.70;9.10;;;;;;;15.15;75.57;100952.56;4988834;28;20200;-71
2023/06/10 03:50:50;;;;;;;12.50;9.87;;;;;;;15.18;76.04;100955.34;4989013;28;20231;-71
2023/06/10 03:53:17;;;;;;;11.03;9.37;;;;;;;15.24;76.15;100963.81;4988683;28;20227;-72
2023/06/10 03:55:45;;;;;;;13.47;10.10;;;;;;;15.27;75.62;100960.47;4992288;28;20198;-71
2023/06/10 03:58:14;;;;;;;12.97;10.33;;;;;;;15.32;75.99;100963.63;4992963;28;20228;-71
2023/06/10 04:00:42;;;;;;;10.70;9.13;;;;;;;15.38;75.91;100969.47;5000231;28;20803;-71
2023/06/10 04:03:14;;;;;;;10.53;9.43;;;;;;;15.41;75.18;100960.78;4993223;28;20256;-71
2023/06/10 04:05:43;;;;;;;11.57;9.57;;;;;;;15.48;75.43;100958.28;4990358;28;20215;-71
2023/06/10 04:08:09;;;;;;;12.20;10.00;;;;;;;15.55;74.79;100961.88;5003304;28;20205;-71
2023/06/10 04:10:36;;;;;;;14.40;10.63;;;;;;;15.61;74.95;100962.34;5006189;28;20196;-71
2023/06/10 04:13:04;;;;;;;11.90;10.57;;;;;;;15.67;73.13;100967.06;4988322;28;20608;-71
2023/06/10 04:15:36;;;;;;;18.10;10.70;;;;;;;15.75;73.65;100968.75;4988332;28;20545;-71
2023/06/10 04:18:08;;;;;;;15.00;10.37;;;;;;;15.83;74.58;100970.41;4988371;28;20213;-71
2023/06/10 04:20:34;;;;;;;13.07;10.60;;;;;;;15.93;74.38;100983.19;4989613;28;20308;-71
2023/06/10 04:23:01;;;;;;;14.73;10.17;;;;;;;16.02;74.36;100973.09;5002547;28;20628;-71
2023/06/10 04:25:28;;;;;;;14.07;10.40;;;;;;;16.11;74.70;100978.19;5005512;28;20209;-71
2023/06/10 04:27:55;;;;;;;13.93;10.60;;;;;;;16.20;73.79;100989.41;4997600;28;20198;-71
2023/06/10 04:30:23;;;;;;;13.83;10.47;;;;;;;16.29;73.72;100982.72;4991523;28;20643;-71
2023/06/10 04:32:51;;;;;;;11.73;10.27;;;;;;;16.37;72.92;100980.97;4999576;28;20232;-71
2023/06/10 04:35:18;;;;;;;16.90;10.20;;;;;;;16.48;72.93;100977.41;4988131;28;20287;-71
2023/06/10 04:37:46;;;;;;;11.80;10.30;;;;;;;16.57;71.85;100974.50;4987894;28;20738;-71
2023/06/10 04:40:13;;;;;;;10.90;9.67;;;;;;;16.68;72.45;100978.88;4988063;28;20197;-71
2023/06/10 04:42:44;;;;;;;13.70;10.03;;;;;;;16.79;72.71;100979.03;4985684;28;20216;-71
2023/06/10 04:45:11;;;;;;;11.83;10.20;;;;;;;16.88;72.65;100983.00;4988082;28;20203;-71
2023/06/10 04:47:39;;;;;;;13.20;10.17;;;;;;;16.97;72.48;100980.84;4987711;28;20210;-71
2023/06/10 04:50:07;;;;;;;12.00;9.83;;;;;;;17.06;72.42;100980.59;4987890;28;20204;-71
2023/06/10 04:52:34;;;;;;;16.17;10.27;;;;;;;17.17;72.58;100984.97;4992494;28;20241;-71
2023/06/10 04:55:00;;;;;;;13.00;10.17;;;;;;;17.25;72.12;100983.19;4994392;28;20737;-71
2023/06/10 04:57:27;;;;;;;11.40;10.03;;;;;;;17.33;70.60;100990.94;4989425;28;20288;-71
2023/06/10 04:59:53;;;;;;;14.83;10.30;;;;;;;17.43;70.12;100994.94;4985354;28;20209;-71
2023/06/10 05:02:20;;;;;;;12.17;10.23;;;;;;;17.54;70.75;100993.16;4993856;28;20193;-71
2023/06/10 05:04:50;;;;;;;13.43;10.57;;;;;;;17.65;70.33;100991.41;5005889;28;20193;-71
2023/06/10 05:07:16;;;;;;;11.57;9.43;;;;;;;17.75;69.96;100998.78;4997282;28;20695;-71
2023/06/10 05:09:43;;;;;;;12.97;10.30;;;;;;;17.86;69.93;100997.75;4989269;28;20199;-71
2023/06/10 05:12:09;;;;;;;11.83;10.37;;;;;;;17.97;70.30;100993.34;4987639;28;20213;-71
2023/06/10 05:14:36;;;;;;;12.30;10.30;;;;;;;18.09;69.01;101003.00;4994103;28;20310;-71
2023/06/10 05:17:02;;;;;;;15.17;11.30;;;;;;;18.21;68.77;101005.44;4989036;28;20209;-71
2023/06/10 05:19:29;;;;;;;11.33;10.13;;;;;;;18.31;68.56;101004.78;4998125;28;20224;-71
2023/06/10 05:21:56;;;;;;;15.43;11.13;;;;;;;18.41;67.51;101012.13;5000544;28;20266;-71
2023/06/10 05:24:23;;;;;;;14.50;10.67;;;;;;;18.51;67.08;101008.81;5010344;28;20224;-71
2023/06/10 05:26:49;;;;;;;18.00;10.80;;;;;;;18.60;67.14;101002.03;4987752;28;20209;-71
2023/06/10 05:29:16;;;;;;;12.87;10.70;;;;;;;18.68;66.49;101010.91;5000808;28;20276;-71
2023/06/10 05:31:42;;;;;;;13.60;11.10;;;;;;;18.75;66.32;101003.69;4991932;28;20260;-71
2023/06/10 05:34:09;;;;;;;12.77;10.20;;;;;;;18.83;66.12;101002.59;5000059;28;20259;-71
2023/06/10 05:36:35;;;;;;;13.10;10.87;;;;;;;18.93;66.04;101004.59;4992531;28;20617;-71
2023/06/10 05:39:05;;;;;;;11.73;10.53;;;;;;;19.03;65.75;101006.59;5008453;28;20216;-72
2023/06/10 05:41:31;;;;;;;11.83;10.63;;;;;;;19.12;65.56;101004.38;4992015;28;20276;-72
2023/06/10 05:43:57;;;;;;;15.07;11.23;;;;;;;19.24;65.29;101006.00;4992191;28;20315;-72
2023/06/10 05:46:24;;;;;;;12.20;10.80;;;;;;;19.33;64.86;101003.75;4991495;28;20205;-72
2023/06/10 05:48:50;;;;;;;12.03;10.83;;;;;;;19.41;64.28;101002.66;4991978;28;20695;-72
2023/06/10 05:51:17;;;;;;;16.80;11.10;;;;;;;19.50;64.14;101003.09;4991932;28;20193;-72
2023/06/10 05:53:43;;;;;;;12.33;11.07;;;;;;;19.60;63.53;101000.47;4981869;28;20320;-72
2023/06/10 05:56:11;;;;;;;11.97;10.77;;;;;;;19.69;63.17;100994.75;4987531;28;20205;-72
2023/06/10 05:58:37;;;;;;;13.73;11.63;;;;;;;19.80;62.46;100992.91;4991125;28;20219;-72
2023/06/10 06:01:03;;;;;;;12.50;11.20;;;;;;;19.88;62.59;101003.25;4991736;28;20560;-72
2023/06/10 06:03:30;;;;;;;15.07;11.60;;;;;;;20.00;62.21;101002.16;4991268;28;20228;-72
2023/06/10 06:05:56;;;;;;;12.30;11.00;;;;;;;20.09;61.61;100998.03;4987163;28;20228;-72
2023/06/10 06:08:23;;;;;;;13.53;10.80;;;;;;;20.18;61.41;101003.78;4991322;28;20206;-72
2023/06/10 06:10:51;;;;;;;13.53;11.37;;;;;;;20.28;61.46;101004.97;4991756;28;20201;-72
2023/06/10 06:13:26;;;;;;;12.17;10.60;;;;;;;20.38;60.68;101007.66;4977292;28;20224;-72
2023/06/10 06:15:52;;;;;;;12.53;10.97;;;;;;;20.47;60.72;101005.38;4988162;28;20204;-72
2023/06/10 06:18:19;;;;;;;12.40;11.20;;;;;;;20.55;60.06;101001.53;4986789;28;20201;-72
2023/06/10 06:20:45;;;;;;;12.13;10.90;;;;;;;20.63;60.16;101003.09;4990068;28;20205;-71
2023/06/10 06:23:12;;;;;;;13.53;10.57;;;;;;;20.71;59.17;101009.25;4990713;28;20225;-71
2023/06/10 06:25:38;;;;;;;13.23;10.53;;;;;;;20.79;59.48;101005.41;4992554;28;20661;-71
2023/06/10 06:28:05;;;;;;;13.40;10.47;;;;;;;20.89;59.14;101007.34;4992533;28;20255;-71
2023/06/10 06:30:33;;;;;;;12.00;10.70;;;;;;;21.00;58.79;101010.81;4998983;28;20197;-71
2023/06/10 06:32:59;;;;;;;12.87;10.63;;;;;;;21.12;58.71;101013.84;4986518;28;20228;-71
2023/06/10 06:35:25;;;;;;;17.17;10.70;;;;;;;21.22;57.60;101015.00;4990513;28;20201;-71
2023/06/10 06:37:52;;;;;;;12.77;11.03;;;;;;;21.31;57.00;101018.06;4985755;28;20209;-70
2023/06/10 06:40:23;;;;;;;13.37;12.07;;;;;;;21.40;56.78;101024.56;4988317;28;20595;-70
2023/06/10 06:42:50;;;;;;;12.60;10.93;;;;;;;21.47;57.45;101021.09;4989825;28;20229;-71
2023/06/10 06:45:23;;;;;;;12.20;10.93;;;;;;;21.55;57.61;101026.06;4989187;28;20202;-71
2023/06/10 06:47:51;;;;;;;12.23;10.53;;;;;;;21.64;57.18;101026.44;4990186;28;20205;-71
2023/06/10 06:50:17;;;;;;;12.77;10.83;;;;;;;21.72;56.63;101025.28;4990380;28;20271;-70
2023/06/10 06:52:44;;;;;;;11.43;10.23;;;;;;;21.81;56.72;101025.63;4986835;28;20228;-70
2023/06/10 06:55:11;;;;;;;14.00;10.70;;;;;;;21.91;56.78;101034.81;4986464;28;20870;-70
2023/06/10 06:57:38;;;;;;;13.47;9.90;;;;;;;22.01;55.60;101034.00;4988367;28;20205;-70
2023/06/10 07:00:08;;;;;;;16.07;10.77;;;;;;;22.09;54.78;101036.25;4987933;28;20209;-70
2023/06/10 07:02:35;;;;;;;13.13;11.47;;;;;;;22.19;54.93;101032.00;4989302;28;20212;-70
2023/06/10 07:05:03;;;;;;;12.37;9.67;;;;;;;22.25;55.11;101041.94;4988754;28;20201;-70
2023/06/10 07:07:29;;;;;;;14.83;10.27;;;;;;;22.33;53.96;101043.44;4989648;28;20580;-70
2023/06/10 07:09:56;;;;;;;19.77;10.27;;;;;;;22.42;52.49;101051.09;4988256;28;20201;-70
2023/06/10 07:12:23;;;;;;;10.83;9.77;;;;;;;22.49;52.84;101042.97;4988084;28;20202;-70
2023/06/10 07:14:50;;;;;;;13.53;9.53;;;;;;;22.58;53.99;101044.09;4988947;28;20228;-70
2023/06/10 07:17:17;;;;;;;10.93;9.07;;;;;;;22.68;53.67;101059.41;4986751;28;20193;-70
2023/06/10 07:19:44;;;;;;;11.77;9.43;;;;;;;22.78;53.87;101055.09;4990073;28;20217;-70
2023/06/10 07:22:12;;;;;;;15.27;9.73;;;;;;;22.88;52.75;101046.97;4986349;28;20205;-70
2023/06/10 07:24:38;;;;;;;11.37;9.90;;;;;;;23.01;52.89;101053.38;4989089;28;20209;-70
2023/06/10 07:27:05;;;;;;;10.73;9.63;;;;;;;23.12;53.04;101056.75;4988083;28;20200;-70
2023/06/10 07:29:32;;;;;;;12.37;9.23;;;;;;;23.23;52.42;101059.41;4986309;28;20189;-70
2023/06/10 07:31:58;;;;;;;11.60;9.43;;;;;;;23.38;52.13;101058.84;4985550;28;20216;-70
2023/06/10 07:34:24;;;;;;;15.37;10.20;;;;;;;23.47;52.09;101065.72;4986648;28;20239;-70
2023/06/10 07:36:51;;;;;;;12.80;9.57;;;;;;;23.58;50.59;101064.41;4988377;28;20268;-70
2023/06/10 07:39:18;;;;;;;12.00;9.55;;;;;;;23.69;50.30;101070.50;4984428;28;20233;-70
2023/06/10 07:41:45;;;;;;;11.65;9.20;;;;;;;23.79;50.72;101064.22;4989024;28;20189;-70
2023/06/10 07:44:11;;;;;;;10.57;9.50;;;;;;;23.89;50.98;101067.97;4985228;28;20228;-70
2023/06/10 07:46:38;;;;;;;11.43;9.07;;;;;;;23.99;50.93;101069.78;4985412;28;20205;-70
2023/06/10 07:49:04;;;;;;;9.90;9.00;;;;;;;24.08;49.97;101070.81;4984417;28;20548;-70
2023/06/10 07:51:30;;;;;;;13.15;9.30;;;;;;;24.16;49.89;101069.56;4990081;28;20333;-70
2023/06/10 07:53:57;;;;;;;15.50;9.05;;;;;;;24.24;50.63;101070.25;4984680;28;20221;-70
2023/06/10 07:56:26;;;;;;;9.70;8.80;;;;;;;24.31;50.48;101068.22;4987496;28;20573;-70
2023/06/10 07:58:55;;;;;;;10.32;9.32;;;;;;;24.36;49.93;101067.78;4992029;28;20221;-70
2023/06/10 08:01:23;;;;;;;10.05;9.15;;;;;;;24.41;49.93;101080.03;4984068;28;20196;-70
2023/06/10 08:03:49;;;;;;;10.88;9.00;;;;;;;24.48;49.10;101084.16;4988073;28;20433;-70
2023/06/10 08:06:16;;;;;;;10.73;8.65;;;;;;;24.56;49.78;101081.38;4985403;28;20225;-70
2023/06/10 08:08:43;;;;;;;14.88;9.40;;;;;;;24.63;48.48;101087.47;4984115;28;20209;-70
2023/06/10 08:11:11;;;;;;;9.38;8.43;;;;;;;24.71;48.59;101088.88;4986770;28;20542;-70
2023/06/10 08:13:39;;;;;;;11.70;9.35;;;;;;;24.78;48.75;101091.50;4989126;28;20225;-70
2023/06/10 08:16:06;;;;;;;12.80;9.07;;;;;;;24.82;48.22;101084.06;4984076;28;20193;-70
2023/06/10 08:18:32;;;;;;;9.93;8.82;;;;;;;24.87;47.27;101097.13;4984468;28;20204;-70
2023/06/10 08:20:58;;;;;;;10.32;9.10;;;;;;;24.92;47.56;101093.22;4986852;28;20228;-70
2023/06/10 08:23:25;;;;;;;9.73;8.68;;;;;;;24.96;47.53;101100.06;4987775;28;20228;-71
2023/06/10 08:25:52;;;;;;;10.27;9.02;;;;;;;25.03;47.06;101097.25;4987727;28;20228;-70
2023/06/10 08:28:19;;;;;;;13.15;8.95;;;;;;;25.11;46.59;101093.28;4985084;28;20210;-70
2023/06/10 08:30:47;;;;;;;11.35;9.35;;;;;;;25.20;46.37;101098.16;4984931;28;20636;-70
2023/06/10 08:33:13;;;;;;;11.35;9.40;;;;;;;25.27;47.46;101095.38;4986870;28;20333;-71
2023/06/10 08:35:40;;;;;;;10.63;9.52;;;;;;;25.32;46.14;101097.59;4988657;28;20219;-70
2023/06/10 08:38:06;;;;;;;10.40;8.82;;;;;;;25.40;46.33;101086.25;4985589;28;20201;-70
2023/06/10 08:40:33;;;;;;;9.52;8.63;;;;;;;25.45;46.27;101093.13;4986259;28;20221;-70
2023/06/10 08:43:06;;;;;;;12.80;8.23;;;;;;;25.49;45.81;101089.16;4989180;28;20700;-70
2023/06/10 08:45:36;;;;;;;10.55;8.63;;;;;;;25.55;45.91;101092.94;4980129;28;20209;-70
2023/06/10 08:48:07;;;;;;;8.55;7.75;;;;;;;25.65;46.03;101096.63;4983030;28;20213;-70
2023/06/10 08:50:36;;;;;;;8.38;7.22;;;;;;;25.72;44.92;101088.34;4988797;28;20627;-71
2023/06/10 08:53:05;;;;;;;8.27;6.95;;;;;;;25.81;45.74;101094.00;4984735;28;20523;-70
2023/06/10 08:55:35;;;;;;;10.50;7.10;;;;;;;25.85;44.33;101097.41;4984452;28;20197;-70
2023/06/10 08:58:01;;;;;;;9.35;6.65;;;;;;;25.92;44.56;101098.06;4983279;28;20516;-70
2023/06/10 09:00:32;;;;;;;7.57;6.70;;;;;;;25.98;43.61;101099.09;4988117;28;20228;-70
2023/06/10 09:02:59;;;;;;;7.30;6.57;;;;;;;26.03;43.94;101101.31;4989608;28;20291;-70
2023/06/10 09:05:28;;;;;;;11.93;6.72;;;;;;;26.04;43.37;101104.75;4990248;28;20594;-70
2023/06/10 09:07:57;;;;;;;7.90;6.03;;;;;;;26.06;43.46;101092.34;4988598;28;20204;-70
2023/06/10 09:10:25;;;;;;;7.50;6.78;;;;;;;26.09;42.46;101101.56;4991790;28;20272;-70
2023/06/10 09:12:51;;;;;;;6.85;6.18;;;;;;;26.09;42.54;101099.63;4983469;28;20220;-70
2023/06/10 09:15:18;;;;;;;8.93;6.57;;;;;;;26.12;42.83;101100.75;4991323;28;20197;-70
2023/06/10 09:17:44;;;;;;;8.70;6.15;;;;;;;26.15;42.90;101095.25;4988027;28;20574;-70
2023/06/10 09:20:11;;;;;;;7.15;6.28;;;;;;;26.15;42.14;101092.53;4999233;28;20688;-70
2023/06/10 09:22:39;;;;;;;7.97;5.97;;;;;;;26.22;42.40;101088.94;4989965;28;20239;-70
2023/06/10 09:25:08;;;;;;;8.68;6.03;;;;;;;26.25;42.79;101086.16;4988616;28;20193;-70
2023/06/10 09:27:45;;;;;;;8.68;6.18;;;;;;;26.32;42.22;101088.69;4989894;28;20569;-70
2023/06/10 09:30:24;;;;;;;10.20;5.78;;;;;;;26.40;41.29;101081.97;4990798;28;20204;-70
2023/06/10 09:32:50;;;;;;;5.97;5.47;;;;;;;26.49;42.29;101087.56;4988673;28;20243;-70
2023/06/10 09:35:17;;;;;;;6.60;5.90;;;;;;;26.52;40.74;101083.25;4990880;28;20211;-70
2023/06/10 09:37:45;;;;;;;8.73;5.50;;;;;;;26.58;40.08;101089.72;4991186;28;20213;-70
2023/06/10 09:40:12;;;;;;;6.82;5.20;;;;;;;26.65;39.04;101084.91;4992018;28;20228;-70
2023/06/10 09:42:39;;;;;;;7.05;5.35;;;;;;;26.69;39.58;101082.88;4986153;28;20588;-70
2023/06/10 09:45:08;;;;;;;5.88;5.28;;;;;;;26.73;40.62;101080.09;4987578;28;20302;-70
2023/06/10 09:47:34;;;;;;;6.20;5.60;;;;;;;26.76;40.24;101085.41;4982987;28;20555;-71
2023/06/10 09:50:01;;;;;;;9.07;5.38;;;;;;;26.79;39.07;101084.59;4987791;28;20209;-71
2023/06/10 09:52:30;;;;;;;7.78;5.40;;;;;;;26.83;37.70;101081.78;4985153;28;20592;-71
2023/06/10 09:55:02;;;;;;;8.95;5.70;;;;;;;26.87;39.77;101083.22;4986813;28;20296;-71
2023/06/10 09:57:33;;;;;;;6.50;5.78;;;;;;;26.93;39.23;101078.06;4982922;28;20362;-71
2023/06/10 10:00:00;;;;;;;6.15;5.55;;;;;;;27.00;39.72;101081.38;4988761;28;20862;-71
2023/06/10 10:02:26;;;;;;;6.85;5.40;;;;;;;27.05;38.62;101078.16;4986350;28;20687;-71
2023/06/10 10:04:52;;;;;;;7.25;5.35;;;;;;;27.13;38.72;101087.63;4986048;28;20217;-71
2023/06/10 10:07:19;;;;;;;5.55;4.90;;;;;;;27.20;38.96;101087.47;4987690;28;20205;-71
2023/06/10 10:09:46;;;;;;;8.02;5.20;;;;;;;27.24;36.73;101085.41;4987634;28;20223;-71
2023/06/10 10:12:16;;;;;;;11.82;5.63;;;;;;;27.31;38.40;101079.06;4985911;28;20205;-71
2023/06/10 10:14:47;;;;;;;7.63;5.25;;;;;;;27.38;38.69;101076.16;4985670;28;20562;-71
2023/06/10 10:17:16;;;;;;;7.45;5.32;;;;;;;27.44;36.10;101069.78;4986181;28;20205;-71
2023/06/10 10:19:48;;;;;;;9.10;5.35;;;;;;;27.53;38.01;101067.22;4986914;28;20217;-71
2023/06/10 10:22:19;;;;;;;6.05;4.55;;;;;;;27.61;36.74;101076.69;4981465;28;20229;-71
2023/06/10 10:24:50;;;;;;;8.35;5.35;;;;;;;27.72;36.64;101070.97;4981781;28;20213;-71
2023/06/10 10:27:22;;;;;;;6.63;5.60;;;;;;;27.73;35.90;101057.00;4985046;28;20536;-71
2023/06/10 10:29:52;;;;;;;6.40;5.40;;;;;;;27.82;36.89;101062.56;4983841;28;20288;-71
2023/06/10 10:32:27;;;;;;;7.28;5.07;;;;;;;27.89;36.59;101064.31;4985452;28;20598;-71
2023/06/10 10:35:02;;;;;;;7.35;5.00;;;;;;;27.95;36.68;101057.94;4986166;28;20383;-71
2023/06/10 10:37:29;;;;;;;7.05;4.80;;;;;;;28.00;36.49;101056.63;4988372;28;20284;-71
2023/06/10 10:39:56;;;;;;;5.63;4.90;;;;;;;28.04;34.58;101049.91;4990392;28;20580;-71
2023/06/10 10:42:24;;;;;;;6.78;4.88;;;;;;;28.08;35.73;101049.81;4986368;28;20208;-71
2023/06/10 10:44:52;;;;;;;7.30;5.20;;;;;;;28.11;35.28;101052.41;4984832;28;20569;-71
2023/06/10 10:47:21;;;;;;;5.72;5.13;;;;;;;28.16;34.35;101040.25;4984721;28;20212;-71
2023/06/10 10:49:51;;;;;;;6.95;5.13;;;;;;;28.24;33.92;101047.78;4987517;28;20295;-71
2023/06/10 10:52:17;;;;;;;7.85;5.18;;;;;;;28.29;33.45;101035.59;4986385;28;20217;-71
2023/06/10 10:54:46;;;;;;;6.10;5.32;;;;;;;28.37;34.84;101045.03;4988094;28;20201;-71
2023/06/10 10:57:14;;;;;;;6.65;4.60;;;;;;;28.45;35.18;101039.00;4985698;28;20207;-71
2023/06/10 11:00:01;;;;;;;5.93;4.85;;;;;;;28.51;32.38;101048.13;4986487;28;20573;-71
2023/06/10 11:02:53;;;;;;;8.05;4.57;;;;;;;28.56;33.28;101041.38;4980282;28;20229;-71
2023/06/10 11:05:32;;;;;;;7.05;4.80;;;;;;;28.64;33.48;101038.00;4971158;28;20233;-71
2023/06/10 11:07:59;;;;;;;6.70;4.97;;;;;;;28.67;32.26;101048.00;4982324;28;20208;-71
2023/06/10 11:10:31;;;;;;;5.82;5.25;;;;;;;28.65;34.04;101044.19;4985387;28;20201;-71
2023/06/10 11:12:58;;;;;;;5.60;5.03;;;;;;;28.64;30.91;101037.25;4982311;28;20248;-71
2023/06/10 11:15:27;;;;;;;5.00;4.43;;;;;;;28.71;32.06;101043.22;4986274;28;20200;-71
2023/06/10 11:18:09;;;;;;;6.95;4.70;;;;;;;28.79;33.44;101030.91;4986062;28;20220;-71
2023/06/10 11:20:56;;;;;;;6.13;4.90;;;;;;;28.86;32.43;101033.41;4987382;28;20221;-71